Time;durP1;ratioP1;P1;durP2;ratioP2;P2;SDS_P1;SDS_P2;PMS_P1;PMS_P2;Temp;Humidity;BMP_temperature;BMP_pressure;BME280_temperature;BME280_humidity;BME280_pressure;Samples;Min_cycle;Max_cycle;Signal;HPM_P1;HPM_P2
2023/07/25 00:01:06;;;;;;;78.67;20.67;;;17.80;99.90;;;;;;5098138;28;20419;-80
2023/07/25 00:03:32;;;;;;;76.77;22.33;;;17.90;99.90;;;;;;5098029;28;20975;-80
2023/07/25 00:06:00;;;;;;;77.77;22.17;;;17.90;99.90;;;;;;5098449;28;20166;-80
2023/07/25 00:08:25;;;;;;;79.23;23.27;;;17.90;99.90;;;;;;5097740;28;20202;-80
2023/07/25 00:10:51;;;;;;;80.93;21.03;;;17.90;99.90;;;;;;5097979;28;20409;-80
2023/07/25 00:13:17;;;;;;;78.77;18.50;;;17.90;99.90;;;;;;5097314;28;20169;-80
2023/07/25 00:15:42;;;;;;;75.00;19.70;;;17.90;99.90;;;;;;5098045;28;20224;-80
2023/07/25 00:18:08;;;;;;;77.70;20.67;;;17.80;99.90;;;;;;5097626;28;20443;-80
2023/07/25 00:20:34;;;;;;;76.93;20.77;;;17.80;99.90;;;;;;5098532;28;20171;-80
2023/07/25 00:22:59;;;;;;;77.67;22.63;;;17.80;99.90;;;;;;5097941;28;20163;-80
2023/07/25 00:25:25;;;;;;;77.57;18.87;;;17.80;99.90;;;;;;5098126;28;20159;-80
2023/07/25 00:27:51;;;;;;;74.40;17.30;;;17.70;99.90;;;;;;5097645;28;20627;-80
2023/07/25 00:30:17;;;;;;;76.90;18.97;;;17.70;99.90;;;;;;5097983;28;20401;-80
2023/07/25 00:32:42;;;;;;;75.37;20.20;;;17.70;99.90;;;;;;5097590;28;20170;-80
2023/07/25 00:35:08;;;;;;;77.40;20.47;;;17.70;99.90;;;;;;5097153;28;20155;-80
2023/07/25 00:37:34;;;;;;;80.63;18.33;;;17.70;99.90;;;;;;5097520;28;20164;-80
2023/07/25 00:39:59;;;;;;;83.07;18.40;;;17.70;99.90;;;;;;5097419;28;20270;-80
2023/07/25 00:42:25;;;;;;;81.10;19.07;;;17.70;99.90;;;;;;5097246;28;20176;-80
2023/07/25 00:44:51;;;;;;;74.90;17.27;;;17.60;99.90;;;;;;5097582;28;20252;-79
2023/07/25 00:47:18;;;;;;;76.60;20.83;;;17.60;99.90;;;;;;5097857;28;20171;-80
2023/07/25 00:49:45;;;;;;;76.47;21.53;;;17.60;99.90;;;;;;5097452;28;20803;-79
2023/07/25 00:52:11;;;;;;;76.17;20.30;;;17.60;99.90;;;;;;5097322;28;20488;-80
2023/07/25 00:54:38;;;;;;;73.70;19.00;;;17.70;99.90;;;;;;5097597;28;20448;-80
2023/07/25 00:57:05;;;;;;;77.17;20.03;;;17.60;99.90;;;;;;5097415;28;20627;-80
2023/07/25 00:59:31;;;;;;;77.40;19.80;;;17.50;99.90;;;;;;5097292;28;20474;-80
2023/07/25 01:01:57;;;;;;;76.70;19.37;;;17.60;99.90;;;;;;5097900;28;20406;-80
2023/07/25 01:04:26;;;;;;;80.90;20.53;;;17.60;99.90;;;;;;5098067;28;20610;-80
2023/07/25 01:06:53;;;;;;;79.43;21.07;;;17.60;99.90;;;;;;5097535;28;20425;-80
2023/07/25 01:09:34;;;;;;;79.57;20.50;;;17.60;99.90;;;;;;5096855;28;20453;-80
2023/07/25 01:12:01;;;;;;;77.93;21.43;;;17.50;99.90;;;;;;5079625;28;20417;-80
2023/07/25 01:14:27;;;;;;;77.57;18.83;;;17.50;99.90;;;;;;5097456;28;20400;-80
2023/07/25 01:16:53;;;;;;;77.10;19.00;;;17.50;99.90;;;;;;5097103;28;20397;-81
2023/07/25 01:19:20;;;;;;;77.83;16.50;;;17.40;99.90;;;;;;5097370;28;20190;-80
2023/07/25 01:21:46;;;;;;;78.90;17.30;;;17.40;99.90;;;;;;5097151;28;20458;-80
2023/07/25 01:24:11;;;;;;;75.50;20.00;;;17.30;99.90;;;;;;5097578;28;20401;-80
2023/07/25 01:26:37;;;;;;;74.57;19.00;;;17.40;99.90;;;;;;5101297;28;20195;-80
2023/07/25 01:29:03;;;;;;;83.30;17.73;;;17.40;99.90;;;;;;5101371;28;20194;-80
2023/07/25 01:31:28;;;;;;;75.93;17.97;;;17.30;99.90;;;;;;5101595;28;20156;-80
2023/07/25 01:33:54;;;;;;;77.47;18.07;;;17.20;99.90;;;;;;5101017;28;20162;-80
2023/07/25 01:36:20;;;;;;;77.90;17.83;;;17.20;99.90;;;;;;5100892;28;20163;-80
2023/07/25 01:38:45;;;;;;;77.70;20.20;;;17.20;99.90;;;;;;5101763;28;20187;-80
2023/07/25 01:41:11;;;;;;;73.17;17.70;;;17.20;99.90;;;;;;5101028;28;20167;-80
2023/07/25 01:43:36;;;;;;;75.47;19.53;;;17.20;99.90;;;;;;5101277;28;20159;-80
2023/07/25 01:46:02;;;;;;;78.97;18.70;;;17.20;99.90;;;;;;5100893;28;20167;-80
2023/07/25 01:48:28;;;;;;;81.70;20.10;;;17.20;99.90;;;;;;5100713;28;20255;-80
2023/07/25 01:50:53;;;;;;;75.07;18.73;;;17.20;99.90;;;;;;5101295;28;20228;-80
2023/07/25 01:53:19;;;;;;;73.80;16.63;;;17.20;99.90;;;;;;5100601;28;20183;-80
2023/07/25 01:55:44;;;;;;;74.87;18.17;;;17.20;99.90;;;;;;5100671;28;20189;-80
2023/07/25 01:58:10;;;;;;;76.83;20.07;;;17.20;99.90;;;;;;5100446;28;20312;-80
2023/07/25 02:00:36;;;;;;;76.37;21.00;;;17.20;99.90;;;;;;5100794;28;20171;-80
2023/07/25 02:03:01;;;;;;;78.57;20.00;;;17.20;99.90;;;;;;5100801;28;20171;-80
2023/07/25 02:05:27;;;;;;;75.37;20.87;;;17.20;99.90;;;;;;5100660;28;20163;-80
2023/07/25 02:07:53;;;;;;;76.47;19.43;;;17.20;99.90;;;;;;5101077;28;20187;-79
2023/07/25 02:10:18;;;;;;;77.50;21.10;;;17.20;99.90;;;;;;5100644;28;20246;-80
2023/07/25 02:12:44;;;;;;;81.47;18.43;;;17.10;99.90;;;;;;5100410;28;20192;-80
2023/07/25 02:15:10;;;;;;;82.73;20.47;;;17.10;99.90;;;;;;5100291;28;20164;-80
2023/07/25 02:17:35;;;;;;;74.87;19.07;;;17.10;99.90;;;;;;5100648;28;20199;-80
2023/07/25 02:20:01;;;;;;;76.80;19.47;;;17.20;99.90;;;;;;5100769;28;20629;-80
2023/07/25 02:22:27;;;;;;;74.37;19.47;;;17.10;99.90;;;;;;5100524;28;20195;-80
2023/07/25 02:24:52;;;;;;;77.47;17.00;;;17.10;99.90;;;;;;5100388;28;20167;-80
2023/07/25 02:27:21;;;;;;;73.83;18.20;;;17.10;99.90;;;;;;5100232;28;20175;-80
2023/07/25 02:29:46;;;;;;;74.87;18.90;;;17.00;99.90;;;;;;5099769;28;20341;-80
2023/07/25 02:32:12;;;;;;;76.20;18.97;;;17.00;99.90;;;;;;5081781;28;20438;-80
2023/07/25 02:34:38;;;;;;;81.17;21.03;;;17.00;99.90;;;;;;5099914;28;20160;-80
2023/07/25 02:37:03;;;;;;;78.70;18.47;;;17.00;99.90;;;;;;5099239;28;20159;-80
2023/07/25 02:39:29;;;;;;;75.60;20.80;;;17.00;99.90;;;;;;5099795;28;20190;-80
2023/07/25 02:41:55;;;;;;;78.10;21.20;;;17.00;99.90;;;;;;5099584;28;20246;-80
2023/07/25 02:44:20;;;;;;;75.70;20.07;;;17.00;99.90;;;;;;5099903;28;20171;-79
2023/07/25 02:46:46;;;;;;;75.50;20.60;;;17.00;99.90;;;;;;5099211;28;20170;-80
2023/07/25 02:49:11;;;;;;;75.77;20.13;;;17.00;99.90;;;;;;5081489;28;20197;-80
2023/07/25 02:51:37;;;;;;;76.87;19.93;;;17.00;99.90;;;;;;5099373;28;20246;-80
2023/07/25 02:54:03;;;;;;;82.40;20.10;;;17.00;99.90;;;;;;5099497;28;20166;-80
2023/07/25 02:56:28;;;;;;;77.80;18.20;;;17.00;99.90;;;;;;5099439;28;20168;-80
2023/07/25 02:58:54;;;;;;;75.07;19.07;;;16.90;99.90;;;;;;5099546;28;20547;-80
2023/07/25 03:01:20;;;;;;;78.57;20.40;;;16.90;99.90;;;;;;5099273;28;20243;-80
2023/07/25 03:03:46;;;;;;;83.90;19.37;;;17.00;99.90;;;;;;5099751;28;20167;-80
2023/07/25 03:06:11;;;;;;;78.50;19.03;;;16.90;99.90;;;;;;5099882;28;20401;-80
2023/07/25 03:08:37;;;;;;;81.00;19.73;;;16.90;99.90;;;;;;5098869;28;20199;-80
2023/07/25 03:11:02;;;;;;;79.00;21.13;;;16.90;99.90;;;;;;5080899;28;20175;-80
2023/07/25 03:13:28;;;;;;;75.43;19.60;;;16.80;99.90;;;;;;5099515;28;20635;-80
2023/07/25 03:15:54;;;;;;;78.77;17.20;;;16.80;99.90;;;;;;5099259;28;20159;-80
2023/07/25 03:18:19;;;;;;;81.33;18.83;;;16.90;99.90;;;;;;5099435;28;20206;-80
2023/07/25 03:20:45;;;;;;;75.30;16.97;;;16.80;99.90;;;;;;5098477;28;20173;-80
2023/07/25 03:23:11;;;;;;;79.27;19.37;;;16.80;99.90;;;;;;5099030;28;20170;-80
2023/07/25 03:25:36;;;;;;;76.90;15.20;;;16.80;99.90;;;;;;5098857;28;20163;-80
2023/07/25 03:28:02;;;;;;;77.63;17.00;;;16.70;99.90;;;;;;5098500;28;20656;-80
2023/07/25 03:30:28;;;;;;;72.70;15.07;;;16.70;99.90;;;;;;5099091;28;20572;-80
2023/07/25 03:32:53;;;;;;;73.60;14.00;;;16.70;99.90;;;;;;5099141;28;20162;-80
2023/07/25 03:35:20;;;;;;;72.90;16.23;;;16.60;99.90;;;;;;5099629;28;20170;-80
2023/07/25 03:37:45;;;;;;;74.80;14.43;;;16.70;99.90;;;;;;5098862;28;20238;-80
2023/07/25 03:40:11;;;;;;;72.87;13.63;;;16.60;99.90;;;;;;5098601;28;20437;-80
2023/07/25 03:42:37;;;;;;;73.50;14.10;;;16.60;99.90;;;;;;5080799;28;20167;-80
2023/07/25 03:45:03;;;;;;;78.10;15.90;;;16.60;99.90;;;;;;5099024;28;20185;-80
2023/07/25 03:47:28;;;;;;;73.43;14.10;;;16.50;99.90;;;;;;5098206;28;20632;-80
2023/07/25 03:49:54;;;;;;;78.70;16.20;;;16.50;99.90;;;;;;5098053;28;20191;-80
2023/07/25 03:52:19;;;;;;;77.93;16.50;;;16.60;99.90;;;;;;5080159;28;20167;-80
2023/07/25 03:54:45;;;;;;;74.07;16.13;;;16.60;99.90;;;;;;5098870;28;20220;-80
2023/07/25 03:57:11;;;;;;;75.30;16.83;;;16.60;99.90;;;;;;5098699;28;20188;-80
2023/07/25 03:59:36;;;;;;;75.50;15.60;;;16.60;99.90;;;;;;5098385;28;20657;-80
2023/07/25 04:02:02;;;;;;;74.47;15.17;;;16.60;99.90;;;;;;5098394;28;20634;-80
2023/07/25 04:04:27;;;;;;;77.03;15.70;;;16.60;99.90;;;;;;5098423;28;20193;-80
2023/07/25 04:06:53;;;;;;;75.60;14.77;;;16.60;99.90;;;;;;5097746;28;20183;-80
2023/07/25 04:09:19;;;;;;;74.97;14.47;;;16.60;99.90;;;;;;5098295;28;20195;-80
2023/07/25 04:11:44;;;;;;;76.60;15.10;;;16.60;99.90;;;;;;5098480;28;20159;-80
2023/07/25 04:14:10;;;;;;;75.70;14.80;;;16.60;99.90;;;;;;5097877;28;20189;-80
2023/07/25 04:16:36;;;;;;;76.67;14.47;;;16.60;99.90;;;;;;5098227;28;20163;-80
2023/07/25 04:19:01;;;;;;;76.30;16.60;;;16.70;99.90;;;;;;5098300;28;20189;-80
2023/07/25 04:21:27;;;;;;;75.67;17.80;;;16.80;99.90;;;;;;5097919;28;20258;-80
2023/07/25 04:23:52;;;;;;;75.00;17.00;;;16.80;99.90;;;;;;5098103;28;20171;-80
2023/07/25 04:26:18;;;;;;;77.53;20.17;;;16.80;99.90;;;;;;5080136;28;20171;-80
2023/07/25 04:28:44;;;;;;;74.80;17.33;;;16.80;99.90;;;;;;5098084;28;20198;-80
2023/07/25 04:31:09;;;;;;;73.27;16.27;;;16.70;99.90;;;;;;5098129;28;20163;-80
2023/07/25 04:33:35;;;;;;;82.20;16.63;;;16.70;99.90;;;;;;5097738;28;20706;-80
2023/07/25 04:36:01;;;;;;;76.63;17.60;;;16.70;99.90;;;;;;5098232;28;20174;-80
2023/07/25 04:38:26;;;;;;;79.23;15.43;;;16.60;99.90;;;;;;5097678;28;20353;-80
2023/07/25 04:40:52;;;;;;;75.70;12.90;;;16.60;99.90;;;;;;5097875;28;20171;-80
2023/07/25 04:43:19;;;;;;;75.90;16.80;;;16.50;99.90;;;;;;5097914;28;20167;-80
2023/07/25 04:45:45;;;;;;;78.70;16.50;;;16.50;99.90;;;;;;5079157;28;20173;-80
2023/07/25 04:48:10;;;;;;;79.57;14.23;;;16.50;99.90;;;;;;5097843;28;20417;-80
2023/07/25 04:50:36;;;;;;;75.27;14.73;;;16.40;99.90;;;;;;5098189;28;20245;-80
2023/07/25 04:53:02;;;;;;;83.33;17.10;;;16.40;99.90;;;;;;5097545;28;20227;-80
2023/07/25 04:55:27;;;;;;;79.80;15.20;;;16.50;99.90;;;;;;5097696;28;20163;-80
2023/07/25 04:57:54;;;;;;;74.57;15.97;;;16.50;99.90;;;;;;5097306;28;20404;-80
2023/07/25 05:00:20;;;;;;;78.90;15.47;;;16.60;99.90;;;;;;5097086;28;20155;-80
2023/07/25 05:02:45;;;;;;;78.20;18.13;;;16.70;99.90;;;;;;5097352;28;20758;-80
2023/07/25 05:05:11;;;;;;;79.00;17.07;;;16.70;99.90;;;;;;5097706;28;20165;-80
2023/07/25 05:07:37;;;;;;;75.00;17.00;;;16.80;99.90;;;;;;5097247;28;20195;-80
2023/07/25 05:10:03;;;;;;;76.50;15.33;;;16.90;99.90;;;;;;5097247;28;20202;-80
2023/07/25 05:12:28;;;;;;;78.90;15.30;;;17.00;99.90;;;;;;5097723;28;20634;-80
2023/07/25 05:14:54;;;;;;;76.50;19.03;;;17.10;99.90;;;;;;5097224;28;20415;-80
2023/07/25 05:17:19;;;;;;;79.57;21.27;;;17.10;99.90;;;;;;5097119;28;20172;-80
2023/07/25 05:19:45;;;;;;;76.63;19.30;;;17.10;99.90;;;;;;5096022;28;20220;-80
2023/07/25 05:22:11;;;;;;;77.23;20.33;;;17.20;99.90;;;;;;5078769;28;20200;-80
2023/07/25 05:24:36;;;;;;;80.57;23.90;;;17.10;99.90;;;;;;5096932;28;20254;-80
2023/07/25 05:27:02;;;;;;;76.97;24.13;;;17.10;99.90;;;;;;5097075;28;20163;-80
2023/07/25 05:29:28;;;;;;;80.87;22.70;;;17.10;99.90;;;;;;5097536;28;20199;-80
2023/07/25 05:31:53;;;;;;;77.57;22.10;;;17.10;99.90;;;;;;5079890;28;20172;-81
2023/07/25 05:34:19;;;;;;;76.37;19.20;;;17.10;99.90;;;;;;5096872;28;20617;-80
2023/07/25 05:36:45;;;;;;;78.60;21.87;;;16.90;99.90;;;;;;5097188;28;20258;-80
2023/07/25 05:39:10;;;;;;;81.07;20.00;;;16.80;99.90;;;;;;5096205;28;20198;-80
2023/07/25 05:41:38;;;;;;;80.77;23.73;;;16.90;99.90;;;;;;5095825;28;20193;-81
2023/07/25 05:44:03;;;;;;;77.73;19.10;;;16.90;99.90;;;;;;5095278;28;20170;-81
2023/07/25 05:46:29;;;;;;;83.27;20.70;;;16.90;99.90;;;;;;5095673;28;20424;-81
2023/07/25 05:48:55;;;;;;;77.77;20.90;;;16.90;99.90;;;;;;5095653;28;20786;-81
2023/07/25 05:51:20;;;;;;;77.37;22.67;;;16.90;99.90;;;;;;5095337;28;20535;-81
2023/07/25 05:53:46;;;;;;;79.93;19.27;;;16.90;99.90;;;;;;5095250;28;20159;-81
2023/07/25 05:56:12;;;;;;;79.73;22.60;;;16.90;99.90;;;;;;5095339;28;20166;-81
2023/07/25 05:58:37;;;;;;;77.57;20.50;;;16.90;99.90;;;;;;5095324;28;20188;-81
2023/07/25 06:01:03;;;;;;;77.50;21.67;;;17.00;99.90;;;;;;5095424;28;20191;-81
2023/07/25 06:03:28;;;;;;;79.90;18.73;;;17.10;99.90;;;;;;5095504;28;20569;-81
2023/07/25 06:05:54;;;;;;;78.40;22.73;;;17.00;99.90;;;;;;5096204;28;20171;-81
2023/07/25 06:08:20;;;;;;;82.50;23.90;;;17.00;99.90;;;;;;5095485;28;20207;-81
2023/07/25 06:10:45;;;;;;;79.30;21.67;;;17.10;99.90;;;;;;5095301;28;20534;-81
2023/07/25 06:13:11;;;;;;;77.17;20.23;;;17.10;99.90;;;;;;5098916;28;20531;-81
2023/07/25 06:15:37;;;;;;;76.57;18.63;;;17.00;99.90;;;;;;5081038;28;20597;-81
2023/07/25 06:18:04;;;;;;;88.20;18.97;;;17.00;99.90;;;;;;5099173;28;20155;-81
2023/07/25 06:20:31;;;;;;;76.10;19.83;;;17.00;99.90;;;;;;5100408;28;20162;-81
2023/07/25 06:22:58;;;;;;;75.27;19.30;;;17.00;99.90;;;;;;5100510;28;20401;-81
2023/07/25 06:25:24;;;;;;;76.43;21.63;;;16.90;99.90;;;;;;5100823;28;20404;-81
2023/07/25 06:27:49;;;;;;;78.23;18.27;;;16.90;99.90;;;;;;5082291;28;20413;-81
2023/07/25 06:30:15;;;;;;;76.07;17.27;;;17.00;99.90;;;;;;5100104;28;20187;-81
2023/07/25 06:32:41;;;;;;;77.03;19.63;;;17.00;99.90;;;;;;5100239;28;20170;-81
2023/07/25 06:35:07;;;;;;;80.30;18.00;;;17.00;99.90;;;;;;5100226;28;20412;-81
2023/07/25 06:37:34;;;;;;;75.77;15.33;;;17.10;99.90;;;;;;5100165;28;20455;-81
2023/07/25 06:40:00;;;;;;;76.40;15.87;;;17.10;99.90;;;;;;5100266;28;20441;-81
2023/07/25 06:42:29;;;;;;;75.90;14.10;;;17.30;99.90;;;;;;5100171;28;20408;-81
2023/07/25 06:44:58;;;;;;;75.40;15.33;;;17.40;99.90;;;;;;5099555;28;20402;-81
2023/07/25 06:47:24;;;;;;;75.10;14.83;;;17.40;99.90;;;;;;5099856;28;20795;-81
2023/07/25 06:49:50;;;;;;;76.30;15.87;;;17.30;99.90;;;;;;5099351;28;20441;-81
2023/07/25 06:52:16;;;;;;;80.97;16.00;;;17.40;99.90;;;;;;5099867;28;20901;-81
2023/07/25 06:54:44;;;;;;;75.77;17.03;;;17.40;99.90;;;;;;5099728;28;20783;-81
2023/07/25 06:57:10;;;;;;;81.33;18.73;;;17.40;99.90;;;;;;5099066;28;20397;-81
2023/07/25 06:59:36;;;;;;;78.00;21.00;;;17.40;99.90;;;;;;5081208;28;20845;-81
2023/07/25 07:02:02;;;;;;;75.00;20.23;;;17.50;99.90;;;;;;5099641;28;20405;-81
2023/07/25 07:04:28;;;;;;;75.93;24.13;;;17.40;99.90;;;;;;5099685;28;20405;-81
2023/07/25 07:06:53;;;;;;;82.40;26.17;;;17.40;99.90;;;;;;5099379;28;20187;-81
2023/07/25 07:09:19;;;;;;;78.13;28.40;;;17.40;99.90;;;;;;5099239;28;20191;-81
2023/07/25 07:11:45;;;;;;;80.40;29.97;;;17.40;99.90;;;;;;5099193;28;20171;-81
2023/07/25 07:14:11;;;;;;;79.50;31.37;;;17.40;99.90;;;;;;5099533;28;20622;-81
2023/07/25 07:16:36;;;;;;;77.87;30.27;;;17.50;99.90;;;;;;5098638;28;20399;-81
2023/07/25 07:19:02;;;;;;;78.97;31.23;;;17.60;99.90;;;;;;5099020;28;20191;-81
2023/07/25 07:21:28;;;;;;;79.60;32.07;;;17.70;99.90;;;;;;5081275;28;20648;-81
2023/07/25 07:23:53;;;;;;;82.03;29.67;;;17.70;99.50;;;;;;5080580;28;20221;-81
2023/07/25 07:26:19;;;;;;;82.50;31.80;;;17.80;99.90;;;;;;5080793;28;20175;-81
2023/07/25 07:28:45;;;;;;;79.63;27.90;;;17.90;99.90;;;;;;5098354;28;20199;-81
2023/07/25 07:31:12;;;;;;;76.40;17.80;;;17.90;93.80;;;;;;5098847;28;20700;-81
2023/07/25 07:33:39;;;;;;;82.40;21.70;;;17.90;90.20;;;;;;5080929;28;20931;-81
2023/07/25 07:36:05;;;;;;;77.50;17.63;;;17.90;93.60;;;;;;5098513;28;20425;-82
2023/07/25 07:38:31;;;;;;;75.30;17.17;;;17.90;81.10;;;;;;5097979;28;20796;-82
2023/07/25 07:40:57;;;;;;;76.07;18.17;;;17.70;82.20;;;;;;5098708;28;20404;-82
2023/07/25 07:43:22;;;;;;;79.73;18.67;;;17.70;83.60;;;;;;5099390;28;20171;-81
2023/07/25 07:45:49;;;;;;;76.90;14.33;;;17.80;91.00;;;;;;5098449;28;20193;-82
2023/07/25 07:48:15;;;;;;;74.80;8.70;;;17.90;85.60;;;;;;5079561;28;20198;-82
2023/07/25 07:50:41;;;;;;;73.10;8.10;;;17.90;77.20;;;;;;5098858;28;20398;-82
2023/07/25 07:53:07;;;;;;;77.67;8.60;;;17.90;65.30;;;;;;5098481;28;20615;-82
2023/07/25 07:55:33;;;;;;;71.67;8.50;;;17.90;72.50;;;;;;5098208;28;20397;-82
2023/07/25 07:58:00;;;;;;;71.83;7.83;;;18.00;75.40;;;;;;5097899;28;20159;-81
2023/07/25 08:00:25;;;;;;;70.20;5.77;;;18.10;77.00;;;;;;5098324;28;21014;-82
2023/07/25 08:02:51;;;;;;;69.00;5.10;;;18.20;62.40;;;;;;5098821;28;20397;-82
2023/07/25 08:05:17;;;;;;;69.47;5.57;;;18.30;64.20;;;;;;5098477;28;20182;-81
2023/07/25 08:07:43;;;;;;;71.90;6.40;;;18.40;69.80;;;;;;5139819;22;20517;-77
2023/07/25 08:10:09;;;;;;;70.63;5.10;;;18.50;56.50;;;;;;5073185;28;20464;-77
2023/07/25 08:12:35;;;;;;;70.97;5.57;;;18.50;30.00;;;;;;5075057;28;20164;-77
2023/07/25 08:15:01;;;;;;;72.70;5.23;;;18.50;37.70;;;;;;5074819;28;20400;-77
2023/07/25 08:17:27;;;;;;;73.63;5.43;;;18.70;46.30;;;;;;5073637;28;20992;-78
2023/07/25 08:19:53;;;;;;;71.70;4.90;;;18.70;32.40;;;;;;5075022;28;20191;-77
2023/07/25 08:22:18;;;;;;;69.60;4.90;;;18.70;20.70;;;;;;5074871;28;20168;-78
2023/07/25 08:24:44;;;;;;;72.90;4.30;;;18.60;18.40;;;;;;5074485;28;20654;-77
2023/07/25 08:27:10;;;;;;;71.13;5.20;;;18.50;10.50;;;;;;5074698;28;20225;-77
2023/07/25 08:29:43;;;;;;;70.53;4.63;;;18.40;21.80;;;;;;5074430;28;20198;-77
2023/07/25 08:32:13;;;;;;;72.67;5.60;;;18.50;22.00;;;;;;5074644;28;20156;-78
2023/07/25 08:34:39;;;;;;;70.13;4.60;;;18.60;25.60;;;;;;5074140;28;20766;-77
2023/07/25 08:37:05;;;;;;;70.80;4.70;;;18.60;17.80;;;;;;5074513;28;20408;-77
2023/07/25 08:39:31;;;;;;;69.10;4.43;;;18.60;14.40;;;;;;5074698;28;20461;-77
2023/07/25 08:41:59;;;;;;;69.63;4.90;;;18.60;18.50;;;;;;5074474;28;20398;-77
2023/07/25 08:44:27;;;;;;;78.60;5.47;;;18.60;26.70;;;;;;5074294;28;20438;-77
2023/07/25 08:46:55;;;;;;;68.90;4.53;;;18.50;22.30;;;;;;5074960;28;20398;-78
2023/07/25 08:49:25;;;;;;;70.23;5.20;;;18.50;21.10;;;;;;5072929;28;20457;-77
2023/07/25 08:51:54;;;;;;;72.23;4.27;;;18.50;26.60;;;;;;5074021;28;20387;-77
2023/07/25 08:54:35;;;;;;;70.60;4.93;;;18.60;28.70;;;;;;5074561;28;20402;-78
2023/07/25 08:57:02;;;;;;;69.97;4.80;;;18.70;19.10;;;;;;5074429;28;20471;-78
2023/07/25 08:59:29;;;;;;;69.57;4.33;;;18.60;19.00;;;;;;5074761;28;20763;-78
2023/07/25 09:01:55;;;;;;;69.10;4.80;;;18.60;21.90;;;;;;5074680;28;20414;-78
2023/07/25 09:04:23;;;;;;;69.97;4.40;;;18.60;15.90;;;;;;5075039;28;20487;-77
2023/07/25 09:06:51;;;;;;;71.90;4.50;;;18.70;14.40;;;;;;5074780;28;20875;-77
2023/07/25 09:09:17;;;;;;;75.70;5.60;;;18.90;7.20;;;;;;5074731;28;20527;-78
2023/07/25 09:11:47;;;;;;;69.70;5.63;;;19.20;13.10;;;;;;5074861;28;20800;-77
2023/07/25 09:14:12;;;;;;;68.67;6.40;;;19.30;6.80;;;;;;5073340;28;20168;-78
2023/07/25 09:16:41;;;;;;;74.30;6.50;;;19.60;1.00;;;;;;5074733;28;20425;-78
2023/07/25 09:19:07;;;;;;;71.40;7.27;;;19.70;1.00;;;;;;5074437;28;20195;-78
2023/07/25 09:21:45;;;;;;;72.90;12.43;;;19.80;1.00;;;;;;5074493;28;20486;-78
2023/07/25 09:24:11;;;;;;;73.57;15.43;;;19.80;1.00;;;;;;5074697;28;20198;-78
2023/07/25 09:26:39;;;;;;;75.67;19.20;;;19.50;1.00;;;;;;5074576;28;20913;-78
2023/07/25 09:29:05;;;;;;;77.33;23.13;;;19.60;1.00;;;;;;5074537;28;20254;-78
2023/07/25 09:31:31;;;;;;;77.10;25.97;;;19.80;1.00;;;;;;5074604;28;20789;-78
2023/07/25 09:33:57;;;;;;;81.93;32.37;;;19.80;1.00;;;;;;5074811;28;20626;-78
2023/07/25 09:36:23;;;;;;;77.00;24.87;;;19.80;1.00;;;;;;5074029;28;20399;-78
2023/07/25 09:38:53;;;;;;;80.90;21.87;;;19.80;1.00;;;;;;5074274;28;20429;-78
2023/07/25 09:41:20;;;;;;;80.77;22.93;;;19.80;1.00;;;;;;5074671;28;20581;-78
2023/07/25 09:43:46;;;;;;;76.83;26.70;;;19.80;1.00;;;;;;5073210;28;20572;-78
2023/07/25 09:46:12;;;;;;;81.07;28.97;;;19.60;1.00;;;;;;5076410;28;20496;-78
2023/07/25 09:48:51;;;;;;;81.83;20.80;;;19.40;1.00;;;;;;5076848;28;20451;-79
2023/07/25 09:51:17;;;;;;;81.00;19.60;;;19.30;1.00;;;;;;5078306;28;20401;-78
2023/07/25 09:53:44;;;;;;;76.67;21.40;;;19.30;1.00;;;;;;5078089;28;20424;-78
2023/07/25 09:56:10;;;;;;;78.27;20.70;;;19.30;1.00;;;;;;5078175;28;20485;-78
2023/07/25 09:58:37;;;;;;;77.70;18.80;;;19.30;1.00;;;;;;5078510;28;20418;-78
2023/07/25 10:01:03;;;;;;;77.77;24.00;;;19.30;1.00;;;;;;5078091;28;20394;-78
2023/07/25 10:03:30;;;;;;;81.70;26.37;;;19.40;1.00;;;;;;5079224;28;20402;-78
2023/07/25 10:05:57;;;;;;;80.50;28.63;;;19.40;1.00;;;;;;5059734;28;20979;-78
2023/07/25 10:08:27;;;;;;;77.83;28.97;;;19.30;1.00;;;;;;5077894;28;20446;-78
2023/07/25 10:10:56;;;;;;;75.73;24.17;;;19.20;1.00;;;;;;5077760;28;20410;-78
2023/07/25 10:13:23;;;;;;;73.13;18.47;;;19.00;1.00;;;;;;5077768;28;20758;-78
2023/07/25 10:15:50;;;;;;;77.03;23.30;;;18.90;1.00;;;;;;5077569;28;20796;-78
2023/07/25 10:18:24;;;;;;;78.00;24.13;;;19.10;1.00;;;;;;5076989;28;20418;-78
2023/07/25 10:20:52;;;;;;;75.27;21.83;;;19.00;1.00;;;;;;5076066;28;20962;-78
2023/07/25 10:23:18;;;;;;;77.43;26.07;;;19.00;1.00;;;;;;5077156;28;20402;-78
2023/07/25 10:25:44;;;;;;;77.17;22.40;;;18.80;1.00;;;;;;5076381;28;20410;-78
2023/07/25 10:28:14;;;;;;;74.07;17.10;;;18.90;1.00;;;;;;5077443;28;20422;-78
2023/07/25 10:30:40;;;;;;;80.87;15.40;;;18.80;1.00;;;;;;5077253;28;20421;-78
2023/07/25 10:33:07;;;;;;;79.10;22.10;;;18.80;1.00;;;;;;5075928;28;20869;-78
2023/07/25 10:35:45;;;;;;;79.57;25.40;;;19.00;1.00;;;;;;5077307;28;20890;-78
2023/07/25 10:38:14;;;;;;;76.23;26.53;;;19.30;1.00;;;;;;5077587;28;20417;-78
2023/07/25 10:40:57;;;;;;;79.73;29.03;;;19.50;1.00;;;;;;5077143;28;20490;-78
2023/07/25 10:43:51;;;;;;;80.77;33.63;;;19.80;1.00;;;;;;5077661;28;20489;-80
2023/07/25 10:46:36;;;;;;;82.33;28.57;;;20.20;1.00;;;;;;5074105;28;20413;-80
2023/07/25 10:49:16;;;;;;;83.33;31.03;;;20.30;1.00;;;;;;5076018;28;20442;-80
2023/07/25 10:51:53;;;;;;;80.13;29.67;;;20.30;1.00;;;;;;5077299;28;20391;-78
2023/07/25 10:54:23;;;;;;;80.17;32.00;;;20.00;1.00;;;;;;5077232;28;20411;-78
2023/07/25 10:57:17;;;;;;;77.50;26.63;;;19.80;1.00;;;;;;5076314;28;20417;-78
2023/07/25 11:00:08;;;;;;;79.80;24.67;;;19.70;1.00;;;;;;5076582;28;20448;-78
2023/07/25 11:02:37;;;;;;;77.53;25.63;;;19.80;1.00;;;;;;5075479;28;20400;-78
2023/07/25 11:05:14;;;;;;;79.90;30.50;;;19.60;1.00;;;;;;5075034;28;20419;-78
2023/07/25 11:07:49;;;;;;;82.13;30.07;;;19.60;1.00;;;;;;5076255;28;20460;-78
2023/07/25 11:10:22;;;;;;;72.33;7.50;;;19.90;1.00;;;;;;5074946;28;20441;-78
2023/07/25 11:12:56;;;;;;;73.40;5.07;;;20.30;1.00;;;;;;5076649;28;20430;-78
2023/07/25 11:15:22;;;;;;;71.63;5.80;;;20.50;1.00;;;;;;5076873;28;20383;-78
2023/07/25 11:17:48;;;;;;;71.23;5.33;;;20.80;1.00;;;;;;5076174;28;20431;-78
2023/07/25 11:20:18;;;;;;;74.13;4.40;;;21.10;1.00;;;;;;5076100;28;20398;-78
2023/07/25 11:22:48;;;;;;;71.57;4.27;;;21.40;1.00;;;;;;5075945;28;20394;-78
2023/07/25 11:25:15;;;;;;;70.07;4.40;;;21.50;1.00;;;;;;5076026;28;20425;-78
2023/07/25 11:27:45;;;;;;;73.50;4.37;;;21.90;1.00;;;;;;5076874;28;20404;-78
2023/07/25 11:30:14;;;;;;;75.87;4.13;;;22.10;1.00;;;;;;5076195;28;20444;-78
2023/07/25 11:32:48;;;;;;;74.60;3.23;;;22.30;1.00;;;;;;5075778;28;20894;-78
2023/07/25 11:35:17;;;;;;;72.17;3.60;;;22.60;1.00;;;;;;5076107;28;20374;-78
2023/07/25 11:37:44;;;;;;;72.17;4.60;;;22.80;1.00;;;;;;5074493;28;20407;-78
2023/07/25 11:40:18;;;;;;;71.87;4.20;;;22.80;1.00;;;;;;5075858;28;20505;-78
2023/07/25 11:42:46;;;;;;;71.20;4.93;;;23.00;1.00;;;;;;5074399;28;20403;-78
2023/07/25 11:45:14;;;;;;;71.20;3.97;;;23.20;1.00;;;;;;5075569;28;20804;-78
2023/07/25 11:47:48;;;;;;;71.40;4.57;;;23.20;1.00;;;;;;5074810;28;20762;-78
2023/07/25 11:50:14;;;;;;;70.57;4.60;;;23.40;1.00;;;;;;5075115;28;20426;-78
2023/07/25 11:52:43;;;;;;;73.77;9.10;;;23.80;1.00;;;;;;5075659;28;20924;-78
2023/07/25 11:55:10;;;;;;;74.27;8.43;;;24.20;1.00;;;;;;5075966;28;20399;-78
2023/07/25 11:57:37;;;;;;;75.00;10.17;;;24.00;1.00;;;;;;5074300;28;20485;-78
2023/07/25 12:00:06;;;;;;;74.83;16.43;;;23.80;1.00;;;;;;5074039;28;20433;-78
2023/07/25 12:02:36;;;;;;;76.07;14.47;;;23.70;1.00;;;;;;5074243;28;20442;-78
2023/07/25 12:05:03;;;;;;;74.17;13.10;;;23.50;1.00;;;;;;5074339;28;20414;-78
2023/07/25 12:08:05;;;;;;;75.40;12.60;;;23.00;1.00;;;;;;5074963;28;20484;-78
2023/07/25 12:10:35;;;;;;;74.30;11.07;;;22.70;1.00;;;;;;5073326;28;20445;-78
2023/07/25 12:13:03;;;;;;;74.03;9.43;;;22.40;1.00;;;;;;5074289;28;20473;-78
2023/07/25 12:15:45;;;;;;;72.20;5.80;;;22.30;1.00;;;;;;5075683;28;20395;-79
2023/07/25 12:18:31;;;;;;;73.17;5.03;;;21.80;1.00;;;;;;5075118;28;20888;-78
2023/07/25 12:20:59;;;;;;;70.50;4.03;;;21.20;1.00;;;;;;5073649;28;20402;-78
2023/07/25 12:23:38;;;;;;;72.10;4.10;;;20.90;1.00;;;;;;5075067;28;20405;-78
2023/07/25 12:26:07;;;;;;;71.60;3.73;;;20.60;1.00;;;;;;5074730;28;20379;-78
2023/07/25 12:28:40;;;;;;;71.27;3.03;;;20.20;1.00;;;;;;5075374;28;21030;-78
2023/07/25 12:31:06;;;;;;;70.40;3.80;;;19.70;1.00;;;;;;5075063;28;20393;-78